Time;durP1;ratioP1;P1;durP2;ratioP2;P2;SDS_P1;SDS_P2;PMS_P1;PMS_P2;Temp;Humidity;BMP_temperature;BMP_pressure;BME280_temperature;BME280_humidity;BME280_pressure;Samples;Min_cycle;Max_cycle;Signal;HPM_P1;HPM_P2
2022/01/02 00:01:45;;;;;;;;;;;12.70;57.60;;;;;;5100244;28;19915;-70
2022/01/02 00:04:18;;;;;;;;;;;12.70;57.60;;;;;;5082028;28;19908;-70
2022/01/02 00:06:48;;;;;;;;;;;12.70;57.70;;;;;;5100009;28;19986;-70
2022/01/02 00:09:19;;;;;;;;;;;12.60;57.80;;;;;;5100703;28;19923;-70
2022/01/02 00:11:49;;;;;;;;;;;12.60;57.80;;;;;;5100008;28;20167;-70
2022/01/02 00:14:18;;;;;;;;;;;12.60;57.70;;;;;;5100383;28;19908;-70
2022/01/02 00:16:45;;;;;;;;;;;12.70;57.70;;;;;;5100037;28;19931;-70
2022/01/02 00:19:27;;;;;;;;;;;12.60;57.70;;;;;;5100025;28;19931;-70
2022/01/02 00:21:55;;;;;;;;;;;12.60;57.90;;;;;;5081929;28;19971;-70
2022/01/02 00:24:21;;;;;;;;;;;12.60;58.00;;;;;;5081755;28;20200;-69
2022/01/02 00:26:50;;;;;;;;;;;12.60;58.00;;;;;;5099853;28;19900;-70
2022/01/02 00:29:16;;;;;;;;;;;12.60;58.00;;;;;;5099949;28;19908;-70
2022/01/02 00:31:42;;;;;;;;;;;12.60;58.00;;;;;;5099721;28;20211;-71
2022/01/02 00:34:08;;;;;;;;;;;12.60;58.00;;;;;;5099864;28;19908;-70
2022/01/02 00:36:35;;;;;;;;;;;12.60;57.90;;;;;;5081703;28;19915;-70
2022/01/02 00:39:01;;;;;;;;;;;12.60;57.90;;;;;;5083356;28;20321;-71
2022/01/02 00:41:30;;;;;;;;;;;12.60;57.90;;;;;;5103821;28;20069;-70
2022/01/02 00:44:15;;;;;;;;;;;12.70;57.80;;;;;;5103747;28;20265;-71
2022/01/02 00:46:47;;;;;;;;;;;12.70;57.60;;;;;;5051967;28;19908;-70
2022/01/02 00:49:16;;;;;;;;;;;12.70;57.60;;;;;;5103640;28;19904;-71
2022/01/02 00:51:47;;;;;;;;;;;12.70;57.60;;;;;;5103516;28;19907;-70
2022/01/02 00:54:14;;;;;;;;;;;12.60;57.70;;;;;;5085026;28;19931;-70
2022/01/02 00:56:43;;;;;;;;;;;12.60;57.90;;;;;;5103522;28;20235;-70
2022/01/02 00:59:12;;;;;;;;;;;12.60;57.90;;;;;;5103500;28;19953;-70
2022/01/02 01:01:41;;;;;;;;;;;12.60;58.00;;;;;;5103384;28;19927;-70
2022/01/02 01:04:07;;;;;;;;;;;12.60;58.10;;;;;;5103416;28;19907;-70
2022/01/02 01:06:33;;;;;;;;;;;12.50;58.10;;;;;;5085172;28;19900;-70
2022/01/02 01:09:00;;;;;;;;;;;12.50;58.20;;;;;;5103114;28;20192;-70
2022/01/02 01:11:27;;;;;;;;;;;12.50;58.20;;;;;;5103222;28;19957;-70
2022/01/02 01:13:53;;;;;;;;;;;12.50;58.30;;;;;;5103238;28;19908;-70
2022/01/02 01:16:19;;;;;;;;;;;12.50;58.30;;;;;;5103060;28;19908;-70
2022/01/02 01:18:45;;;;;;;;;;;12.50;58.20;;;;;;5084992;28;19908;-70
2022/01/02 01:21:10;;;;;;;;;;;12.60;58.10;;;;;;5102982;28;19974;-70
2022/01/02 01:23:36;;;;;;;;;;;12.60;58.00;;;;;;5103027;28;19907;-69
2022/01/02 01:26:06;;;;;;;;;;;12.60;57.90;;;;;;5102942;28;19900;-71
2022/01/02 01:28:32;;;;;;;;;;;12.70;57.80;;;;;;5102965;28;19906;-70
2022/01/02 01:30:58;;;;;;;;;;;12.60;57.80;;;;;;5102836;28;20104;-70
2022/01/02 01:33:23;;;;;;;;;;;12.60;57.90;;;;;;5102762;28;19983;-70
2022/01/02 01:35:49;;;;;;;;;;;12.50;58.10;;;;;;5102659;28;19971;-71
2022/01/02 01:38:14;;;;;;;;;;;12.50;58.10;;;;;;5084517;28;20134;-69
2022/01/02 01:40:42;;;;;;;;;;;12.50;58.10;;;;;;5102708;28;19975;-70
2022/01/02 01:43:12;;;;;;;;;;;12.50;58.10;;;;;;5102677;28;19926;-70
2022/01/02 01:45:38;;;;;;;;;;;12.50;58.00;;;;;;5102535;28;19900;-70
2022/01/02 01:48:05;;;;;;;;;;;12.50;58.00;;;;;;5102552;28;19965;-70
2022/01/02 01:50:38;;;;;;;;;;;12.50;58.00;;;;;;5101681;28;19930;-70
2022/01/02 01:53:04;;;;;;;;;;;12.50;58.10;;;;;;5102383;28;19911;-69
2022/01/02 01:55:31;;;;;;;;;;;12.50;58.10;;;;;;5102356;28;20101;-70
2022/01/02 01:57:57;;;;;;;;;;;12.50;58.20;;;;;;5084255;28;20123;-70
2022/01/02 02:00:23;;;;;;;;;;;12.50;58.80;;;;;;5084080;28;19900;-69
2022/01/02 02:02:49;;;;;;;;;;;12.60;58.10;;;;;;5102316;28;19908;-70
2022/01/02 02:05:14;;;;;;;;;;;12.60;58.00;;;;;;5102182;28;19942;-70
2022/01/02 02:07:42;;;;;;;;;;;12.60;58.00;;;;;;5102031;28;20204;-70
2022/01/02 02:10:16;;;;;;;;;;;12.50;58.00;;;;;;5083921;28;19900;-70
2022/01/02 02:12:43;;;;;;;;;;;12.60;58.00;;;;;;5102072;28;20206;-71
2022/01/02 02:15:10;;;;;;;;;;;12.60;58.10;;;;;;5083927;28;20238;-71
2022/01/02 02:17:36;;;;;;;;;;;12.60;58.00;;;;;;5102043;28;19931;-71
2022/01/02 02:20:16;;;;;;;;;;;12.50;58.00;;;;;;5083748;28;19907;-71
2022/01/02 02:22:45;;;;;;;;;;;12.50;58.10;;;;;;5101802;28;20116;-70
2022/01/02 02:25:17;;;;;;;;;;;12.50;58.20;;;;;;5101774;28;19908;-70
2022/01/02 02:27:49;;;;;;;;;;;12.50;58.20;;;;;;5101714;28;19907;-70
2022/01/02 02:30:15;;;;;;;;;;;12.50;58.20;;;;;;5101730;28;19915;-70
2022/01/02 02:32:41;;;;;;;;;;;12.50;58.20;;;;;;5101588;28;19912;-70
2022/01/02 02:35:06;;;;;;;;;;;12.50;58.30;;;;;;5101655;28;19900;-70
2022/01/02 02:37:32;;;;;;;;;;;12.50;58.20;;;;;;5101596;28;20188;-70
2022/01/02 02:39:58;;;;;;;;;;;12.50;58.10;;;;;;5101484;28;19900;-69
2022/01/02 02:42:34;;;;;;;;;;;12.50;58.20;;;;;;5101548;28;19949;-70
2022/01/02 02:48:57;;;;;;;;;;;12.50;58.30;;;;;;5101452;28;19966;-70
2022/01/02 02:50:36;;;;;;;;;;;12.50;58.20;;;;;;5101407;28;19971;-71
2022/01/02 02:53:02;;;;;;;;;;;12.50;58.10;;;;;;5101197;28;20100;-71
2022/01/02 02:55:31;;;;;;;;;;;12.50;58.10;;;;;;5101280;28;19904;-70
2022/01/02 02:58:08;;;;;;;;;;;12.50;58.00;;;;;;5101264;28;19900;-70
2022/01/02 03:00:34;;;;;;;;;;;12.50;58.10;;;;;;5083115;28;19954;-70
2022/01/02 03:03:00;;;;;;;;;;;12.50;58.20;;;;;;5100013;28;19907;-70
2022/01/02 03:05:25;;;;;;;;;;;12.40;58.30;;;;;;5083052;28;20200;-70
2022/01/02 03:07:51;;;;;;;;;;;12.40;58.40;;;;;;5100924;28;19957;-70
2022/01/02 03:10:17;;;;;;;;;;;12.40;58.40;;;;;;5100946;28;19960;-70
2022/01/02 03:12:42;;;;;;;;;;;12.40;58.40;;;;;;5082678;28;19938;-70
2022/01/02 03:15:08;;;;;;;;;;;12.40;58.40;;;;;;5082725;28;19907;-70
2022/01/02 03:17:33;;;;;;;;;;;12.50;58.20;;;;;;5100913;28;20196;-70
2022/01/02 03:19:59;;;;;;;;;;;12.50;58.10;;;;;;5100779;28;19938;-70
2022/01/02 03:22:24;;;;;;;;;;;12.50;58.10;;;;;;5100879;28;19908;-70
2022/01/02 03:24:52;;;;;;;;;;;12.50;58.20;;;;;;5100693;28;19950;-70
2022/01/02 03:27:17;;;;;;;;;;;12.50;58.20;;;;;;5100796;28;19907;-70
2022/01/02 03:29:43;;;;;;;;;;;12.50;58.20;;;;;;5100685;28;19900;-69
2022/01/02 03:32:09;;;;;;;;;;;12.50;58.20;;;;;;5082364;28;20127;-71
2022/01/02 03:34:34;;;;;;;;;;;12.50;58.10;;;;;;5100619;28;19908;-71
2022/01/02 03:37:00;;;;;;;;;;;12.50;58.00;;;;;;5100476;28;19908;-71
2022/01/02 03:39:25;;;;;;;;;;;12.60;58.00;;;;;;5100587;28;20108;-70
2022/01/02 03:41:51;;;;;;;;;;;12.50;58.00;;;;;;5100501;28;19900;-70
2022/01/02 03:44:16;;;;;;;;;;;12.50;58.10;;;;;;5100584;28;19904;-71
2022/01/02 03:46:42;;;;;;;;;;;12.50;58.30;;;;;;5100392;28;19907;-70
2022/01/02 03:49:08;;;;;;;;;;;12.40;58.40;;;;;;5100444;28;19960;-70
2022/01/02 03:51:33;;;;;;;;;;;12.40;58.40;;;;;;5100357;28;19918;-70
2022/01/02 03:53:59;;;;;;;;;;;12.40;58.50;;;;;;5100368;28;20257;-70
2022/01/02 03:56:24;;;;;;;;;;;12.40;58.50;;;;;;5100787;28;19912;-70
2022/01/02 03:58:50;;;;;;;;;;;12.40;58.50;;;;;;5082183;28;19955;-70
2022/01/02 04:01:16;;;;;;;;;;;12.40;58.40;;;;;;5100417;28;19908;-70
2022/01/02 04:03:41;;;;;;;;;;;12.40;58.30;;;;;;5100284;28;19899;-70
2022/01/02 04:06:07;;;;;;;;;;;12.50;58.30;;;;;;5100315;28;19922;-70
2022/01/02 04:08:32;;;;;;;;;;;12.50;58.20;;;;;;5082087;28;20215;-70
2022/01/02 04:10:58;;;;;;;;;;;12.50;58.20;;;;;;5100272;28;19904;-70
2022/01/02 04:13:23;;;;;;;;;;;12.50;58.30;;;;;;5100562;28;19916;-70
2022/01/02 04:15:49;;;;;;;;;;;12.50;58.20;;;;;;5086295;28;19990;-70
2022/01/02 04:18:15;;;;;;;;;;;12.50;58.20;;;;;;5104393;28;19997;-71
2022/01/02 04:20:40;;;;;;;;;;;12.50;58.10;;;;;;5104316;28;19908;-70
2022/01/02 04:23:06;;;;;;;;;;;12.50;58.00;;;;;;5104291;28;19915;-70
2022/01/02 04:25:31;;;;;;;;;;;12.50;58.10;;;;;;5104258;28;19983;-71
2022/01/02 04:27:57;;;;;;;;;;;12.50;58.20;;;;;;5104296;28;20081;-70
2022/01/02 04:30:23;;;;;;;;;;;12.40;58.30;;;;;;5104252;28;19938;-70
2022/01/02 04:32:48;;;;;;;;;;;12.40;58.40;;;;;;5085889;28;19912;-70
2022/01/02 04:35:14;;;;;;;;;;;12.40;58.50;;;;;;5104085;28;19915;-70
2022/01/02 04:37:40;;;;;;;;;;;12.30;58.50;;;;;;5103930;28;19908;-69
2022/01/02 04:40:06;;;;;;;;;;;12.40;58.50;;;;;;5103997;28;20215;-71
2022/01/02 04:42:31;;;;;;;;;;;12.40;58.50;;;;;;5103961;28;19908;-71
2022/01/02 04:44:57;;;;;;;;;;;12.40;58.40;;;;;;5103970;28;19900;-70
2022/01/02 04:47:23;;;;;;;;;;;12.40;58.40;;;;;;5103912;28;19900;-70
2022/01/02 04:49:48;;;;;;;;;;;12.50;58.40;;;;;;5103817;28;19947;-70
2022/01/02 04:52:14;;;;;;;;;;;12.40;58.30;;;;;;5103659;28;19912;-70
2022/01/02 04:54:40;;;;;;;;;;;12.40;58.30;;;;;;5103725;28;20093;-70
2022/01/02 04:57:05;;;;;;;;;;;12.40;58.20;;;;;;5103678;28;19950;-70
2022/01/02 04:59:31;;;;;;;;;;;12.50;58.20;;;;;;5103646;28;19908;-70
2022/01/02 05:01:56;;;;;;;;;;;12.50;58.20;;;;;;5103598;28;19900;-70
2022/01/02 05:04:22;;;;;;;;;;;12.40;58.20;;;;;;5103622;28;19942;-70
2022/01/02 05:06:47;;;;;;;;;;;12.40;58.30;;;;;;5103235;28;19900;-70
2022/01/02 05:09:13;;;;;;;;;;;12.40;58.40;;;;;;5085316;28;20478;-70
2022/01/02 05:11:39;;;;;;;;;;;12.40;58.50;;;;;;5103324;28;19908;-70
2022/01/02 05:14:04;;;;;;;;;;;12.30;58.50;;;;;;5103353;28;19950;-70
2022/01/02 05:16:30;;;;;;;;;;;12.30;58.50;;;;;;5103353;28;19915;-69
2022/01/02 05:18:55;;;;;;;;;;;12.30;58.50;;;;;;5103267;28;19947;-71
2022/01/02 05:21:21;;;;;;;;;;;12.30;58.50;;;;;;5103150;28;19904;-70
2022/01/02 05:23:47;;;;;;;;;;;12.40;58.50;;;;;;5084926;28;20207;-69
2022/01/02 05:26:12;;;;;;;;;;;12.40;58.40;;;;;;5101950;28;19922;-70
2022/01/02 05:28:38;;;;;;;;;;;12.40;58.30;;;;;;5103049;28;19907;-70
2022/01/02 05:31:04;;;;;;;;;;;12.40;58.20;;;;;;5102952;28;19908;-69
2022/01/02 05:33:29;;;;;;;;;;;12.40;58.20;;;;;;5084620;28;19947;-71
2022/01/02 05:35:55;;;;;;;;;;;12.40;58.20;;;;;;5084927;28;20123;-70
2022/01/02 05:38:21;;;;;;;;;;;12.40;58.20;;;;;;5102906;28;19958;-70
2022/01/02 05:40:49;;;;;;;;;;;12.40;58.20;;;;;;5084683;28;19907;-70
2022/01/02 05:43:15;;;;;;;;;;;12.40;58.30;;;;;;5102749;28;19953;-70
2022/01/02 05:45:40;;;;;;;;;;;12.40;58.40;;;;;;5102753;28;19908;-70
2022/01/02 05:48:06;;;;;;;;;;;12.40;58.40;;;;;;5084822;28;20188;-70
2022/01/02 05:50:32;;;;;;;;;;;12.40;58.50;;;;;;5102603;28;20180;-70
2022/01/02 05:52:57;;;;;;;;;;;12.30;58.50;;;;;;5102495;28;19926;-70
2022/01/02 05:55:23;;;;;;;;;;;12.30;58.50;;;;;;5102599;28;19907;-70
2022/01/02 05:57:48;;;;;;;;;;;12.30;58.60;;;;;;5102506;28;19915;-70
2022/01/02 06:00:14;;;;;;;;;;;12.30;58.60;;;;;;5102490;28;19908;-70
2022/01/02 06:02:39;;;;;;;;;;;12.30;58.60;;;;;;5084192;28;19914;-69
2022/01/02 06:05:06;;;;;;;;;;;12.30;58.60;;;;;;5102445;28;19973;-71
2022/01/02 06:07:33;;;;;;;;;;;12.30;58.60;;;;;;5102120;28;19907;-70
2022/01/02 06:09:58;;;;;;;;;;;12.40;58.40;;;;;;5102256;28;19963;-70
2022/01/02 06:12:24;;;;;;;;;;;12.40;58.30;;;;;;5102146;28;20154;-70
2022/01/02 06:14:49;;;;;;;;;;;12.40;58.20;;;;;;5102077;28;19908;-70
2022/01/02 06:17:15;;;;;;;;;;;12.50;58.20;;;;;;5102184;28;19911;-70
2022/01/02 06:19:41;;;;;;;;;;;12.40;58.20;;;;;;5102031;28;19914;-70
2022/01/02 06:22:06;;;;;;;;;;;12.40;58.30;;;;;;5083784;28;19987;-70
2022/01/02 06:24:32;;;;;;;;;;;12.40;58.30;;;;;;5101955;28;19900;-70
2022/01/02 06:26:57;;;;;;;;;;;12.30;58.40;;;;;;5101831;28;19967;-70
2022/01/02 06:29:23;;;;;;;;;;;12.30;58.50;;;;;;5101714;28;19900;-70
2022/01/02 06:31:48;;;;;;;;;;;12.30;58.60;;;;;;5101675;28;19908;-70
2022/01/02 06:34:14;;;;;;;;;;;12.30;58.60;;;;;;5083571;28;19942;-70
2022/01/02 06:36:40;;;;;;;;;;;12.30;58.60;;;;;;5101423;28;20016;-70
2022/01/02 06:39:05;;;;;;;;;;;12.30;58.60;;;;;;5101934;28;19939;-70
2022/01/02 06:41:31;;;;;;;;;;;12.30;58.60;;;;;;5101565;28;20214;-70
2022/01/02 06:43:57;;;;;;;;;;;12.30;58.60;;;;;;5101521;28;19900;-70
2022/01/02 06:46:22;;;;;;;;;;;12.30;58.60;;;;;;5101381;28;19907;-70
2022/01/02 06:48:48;;;;;;;;;;;12.30;58.60;;;;;;5101329;28;19900;-70
2022/01/02 06:51:14;;;;;;;;;;;12.30;58.50;;;;;;5101314;28;19908;-70
2022/01/02 06:53:39;;;;;;;;;;;12.40;58.40;;;;;;5101211;28;19978;-70
2022/01/02 06:56:05;;;;;;;;;;;12.40;58.30;;;;;;5101275;28;19908;-70
2022/01/02 06:58:31;;;;;;;;;;;12.40;58.20;;;;;;5101262;28;19918;-70
2022/01/02 07:00:57;;;;;;;;;;;12.40;58.20;;;;;;5083318;28;19900;-70
2022/01/02 07:03:24;;;;;;;;;;;12.40;58.20;;;;;;5101088;28;19954;-70
2022/01/02 07:05:50;;;;;;;;;;;12.40;58.40;;;;;;5101083;28;19908;-71
2022/01/02 07:08:16;;;;;;;;;;;12.40;58.40;;;;;;5082583;28;20104;-72
2022/01/02 07:10:42;;;;;;;;;;;12.30;58.40;;;;;;5100992;28;19900;-71
2022/01/02 07:13:07;;;;;;;;;;;12.40;58.50;;;;;;5100852;28;19908;-72
2022/01/02 07:15:33;;;;;;;;;;;12.30;58.40;;;;;;5100863;28;19907;-69
2022/01/02 07:17:59;;;;;;;;;;;12.30;58.50;;;;;;5100781;28;19939;-69
2022/01/02 07:20:25;;;;;;;;;;;12.30;58.50;;;;;;5100768;28;19908;-70
2022/01/02 07:22:50;;;;;;;;;;;12.30;58.50;;;;;;5100726;28;20215;-70
2022/01/02 07:25:16;;;;;;;;;;;12.30;58.50;;;;;;5082609;28;19907;-70
2022/01/02 07:27:41;;;;;;;;;;;12.30;58.50;;;;;;5100681;28;19907;-70
2022/01/02 07:30:07;;;;;;;;;;;12.30;58.50;;;;;;5100643;28;19900;-69
2022/01/02 07:32:33;;;;;;;;;;;12.40;58.40;;;;;;5100457;28;19972;-69
2022/01/02 07:34:59;;;;;;;;;;;12.40;58.40;;;;;;5100474;28;19931;-70
2022/01/02 07:37:24;;;;;;;;;;;12.40;58.30;;;;;;5100563;28;20200;-69
2022/01/02 07:39:50;;;;;;;;;;;12.40;58.20;;;;;;5082280;28;19908;-70
2022/01/02 07:42:16;;;;;;;;;;;12.40;58.30;;;;;;5100392;28;19973;-70
2022/01/02 07:44:41;;;;;;;;;;;12.40;58.30;;;;;;5082197;28;20206;-69
2022/01/02 07:47:07;;;;;;;;;;;12.40;58.30;;;;;;5082320;28;19907;-70
2022/01/02 07:49:33;;;;;;;;;;;12.40;58.30;;;;;;5099853;28;19899;-70
2022/01/02 07:51:59;;;;;;;;;;;12.40;58.40;;;;;;5082092;28;19919;-70
2022/01/02 07:54:24;;;;;;;;;;;12.40;58.40;;;;;;5100388;28;19908;-69
2022/01/02 07:56:50;;;;;;;;;;;12.40;58.40;;;;;;5100223;28;19907;-71
2022/01/02 07:59:16;;;;;;;;;;;12.40;58.40;;;;;;5100248;28;19908;-70
2022/01/02 08:01:41;;;;;;;;;;;12.40;58.40;;;;;;5100207;28;19906;-70
2022/01/02 08:04:07;;;;;;;;;;;12.40;58.40;;;;;;5100176;28;19900;-70
2022/01/02 08:06:33;;;;;;;;;;;12.40;58.30;;;;;;5100132;28;19915;-70
2022/01/02 08:08:58;;;;;;;;;;;12.50;58.30;;;;;;5099878;28;20220;-70
2022/01/02 08:11:24;;;;;;;;;;;12.50;58.10;;;;;;5100165;28;19919;-70
2022/01/02 08:13:50;;;;;;;;;;;12.60;57.80;;;;;;5099933;28;19962;-70
2022/01/02 08:16:16;;;;;;;;;;;12.60;57.70;;;;;;5081887;28;19908;-70
2022/01/02 08:18:42;;;;;;;;;;;12.70;57.60;;;;;;5100015;28;19938;-70
2022/01/02 08:21:08;;;;;;;;;;;12.70;57.60;;;;;;5081880;28;19900;-71
2022/01/02 08:23:34;;;;;;;;;;;12.70;57.50;;;;;;5099963;28;19922;-70
2022/01/02 08:25:59;;;;;;;;;;;12.70;57.50;;;;;;5099873;28;19908;-70
2022/01/02 08:28:25;;;;;;;;;;;12.80;57.40;;;;;;5099934;28;19916;-71
2022/01/02 08:30:51;;;;;;;;;;;12.80;57.50;;;;;;5099984;28;20317;-71
2022/01/02 08:33:16;;;;;;;;;;;12.80;57.30;;;;;;5099752;28;19908;-70
2022/01/02 08:35:43;;;;;;;;;;;12.80;57.30;;;;;;5099839;28;20175;-70
2022/01/02 08:38:09;;;;;;;;;;;12.80;57.30;;;;;;5099880;28;19900;-70
2022/01/02 08:40:35;;;;;;;;;;;12.90;57.40;;;;;;5099886;28;19914;-71
2022/01/02 08:43:01;;;;;;;;;;;12.90;57.40;;;;;;5081697;28;19915;-70
2022/01/02 08:45:26;;;;;;;;;;;12.90;57.30;;;;;;5081632;28;19900;-70
2022/01/02 08:47:52;;;;;;;;;;;12.90;57.90;;;;;;5099701;28;19900;-70
2022/01/02 08:50:17;;;;;;;;;;;12.80;57.30;;;;;;5099677;28;19930;-70
2022/01/02 08:52:43;;;;;;;;;;;12.80;57.30;;;;;;5099659;28;19948;-70
2022/01/02 08:55:09;;;;;;;;;;;12.90;57.30;;;;;;5099638;28;19908;-70
2022/01/02 08:57:34;;;;;;;;;;;12.90;57.30;;;;;;5099730;28;20203;-70
2022/01/02 09:00:00;;;;;;;;;;;12.90;57.30;;;;;;5100921;28;20068;-70
2022/01/02 09:02:26;;;;;;;;;;;12.80;57.30;;;;;;5103483;28;19971;-70
2022/01/02 09:04:51;;;;;;;;;;;12.90;57.30;;;;;;5085211;28;19946;-70
2022/01/02 09:07:17;;;;;;;;;;;12.90;57.40;;;;;;5085007;28;19939;-70
2022/01/02 09:09:42;;;;;;;;;;;12.90;57.50;;;;;;5103296;28;19906;-70
2022/01/02 09:12:08;;;;;;;;;;;12.90;57.40;;;;;;5103218;28;19911;-71
2022/01/02 09:14:35;;;;;;;;;;;12.90;57.40;;;;;;5103215;28;20150;-70
2022/01/02 09:17:00;;;;;;;;;;;12.90;57.50;;;;;;5103035;28;19945;-71
2022/01/02 09:19:26;;;;;;;;;;;12.90;57.40;;;;;;5103084;28;20017;-70
2022/01/02 09:21:51;;;;;;;;;;;12.90;57.40;;;;;;5103007;28;20180;-70
2022/01/02 09:24:17;;;;;;;;;;;12.90;57.30;;;;;;5103020;28;19942;-70
2022/01/02 09:26:43;;;;;;;;;;;13.00;57.50;;;;;;5102977;28;19907;-71
2022/01/02 09:29:08;;;;;;;;;;;12.90;57.30;;;;;;5102839;28;19971;-71
2022/01/02 09:31:34;;;;;;;;;;;13.00;57.40;;;;;;5102929;28;19912;-74
2022/01/02 09:34:00;;;;;;;;;;;13.00;57.40;;;;;;5102721;28;19912;-70
2022/01/02 09:36:25;;;;;;;;;;;12.90;57.50;;;;;;5102862;28;19907;-70
2022/01/02 09:38:52;;;;;;;;;;;12.90;57.50;;;;;;5102717;28;19907;-71
2022/01/02 09:41:19;;;;;;;;;;;13.00;57.60;;;;;;5102690;28;19962;-70
2022/01/02 09:43:47;;;;;;;;;;;13.00;57.60;;;;;;5102634;28;19908;-71
2022/01/02 09:46:12;;;;;;;;;;;13.00;58.20;;;;;;5102572;28;19900;-71
2022/01/02 09:48:38;;;;;;;;;;;13.00;57.70;;;;;;5102566;28;19942;-70
2022/01/02 09:51:04;;;;;;;;;;;13.00;57.70;;;;;;5102498;28;20104;-77
2022/01/02 09:53:29;;;;;;;;;;;13.00;57.60;;;;;;5102363;28;19911;-70
2022/01/02 09:55:55;;;;;;;;;;;13.00;57.60;;;;;;5102447;28;20119;-70
2022/01/02 09:58:21;;;;;;;;;;;13.10;57.60;;;;;;5102301;28;19907;-71
2022/01/02 10:00:48;;;;;;;;;;;13.00;57.50;;;;;;5084174;28;19900;-70
2022/01/02 10:03:14;;;;;;;;;;;13.00;57.50;;;;;;5102220;28;19908;-69
2022/01/02 10:06:01;;;;;;;;;;;13.00;57.50;;;;;;5084158;28;19908;-71
2022/01/02 10:08:29;;;;;;;;;;;13.10;57.60;;;;;;5102024;28;19946;-71
2022/01/02 10:11:00;;;;;;;;;;;13.10;57.60;;;;;;5101903;28;19939;-71
2022/01/02 10:13:40;;;;;;;;;;;13.10;57.70;;;;;;5101877;28;19938;-69
2022/01/02 10:16:25;;;;;;;;;;;13.10;57.70;;;;;;5102037;28;19908;-70
2022/01/02 10:18:52;;;;;;;;;;;13.10;58.30;;;;;;5084054;28;19908;-71
2022/01/02 10:21:33;;;;;;;;;;;13.00;57.80;;;;;;5083707;28;19929;-70
2022/01/02 10:24:21;;;;;;;;;;;13.10;57.80;;;;;;5101869;28;19908;-69
2022/01/02 10:27:06;;;;;;;;;;;13.10;57.80;;;;;;5101852;28;19907;-70
2022/01/02 10:29:40;;;;;;;;;;;13.10;57.80;;;;;;5101797;28;19900;-70
2022/01/02 10:32:22;;;;;;;;;;;13.10;57.80;;;;;;5101622;28;19918;-70
2022/01/02 10:34:48;;;;;;;;;;;13.20;57.90;;;;;;5101698;28;20243;-70
2022/01/02 10:37:23;;;;;;;;;;;13.20;57.70;;;;;;5101667;28;19900;-70
2022/01/02 10:39:49;;;;;;;;;;;13.20;57.70;;;;;;5101496;28;19907;-70
2022/01/02 10:42:16;;;;;;;;;;;13.20;57.70;;;;;;5101490;28;20011;-70
2022/01/02 10:44:42;;;;;;;;;;;13.20;57.70;;;;;;5083347;28;19974;-70
2022/01/02 10:47:18;;;;;;;;;;;13.20;57.70;;;;;;5083299;28;19900;-71
2022/01/02 10:49:46;;;;;;;;;;;13.20;57.70;;;;;;5101359;28;20146;-70
2022/01/02 10:52:23;;;;;;;;;;;13.20;57.70;;;;;;5101172;28;19911;-69
2022/01/02 10:54:49;;;;;;;;;;;13.20;57.70;;;;;;5101237;28;19904;-69
2022/01/02 10:57:15;;;;;;;;;;;13.20;57.70;;;;;;5101210;28;19915;-70
2022/01/02 10:59:42;;;;;;;;;;;13.20;57.90;;;;;;5101175;28;19908;-70
2022/01/02 11:02:08;;;;;;;;;;;13.20;57.80;;;;;;5101153;28;19900;-70
2022/01/02 11:04:34;;;;;;;;;;;13.20;57.80;;;;;;5101056;28;19908;-70
2022/01/02 11:07:00;;;;;;;;;;;13.20;57.90;;;;;;5100788;28;20212;-71
2022/01/02 11:09:27;;;;;;;;;;;13.20;57.90;;;;;;5101067;28;19912;-70
2022/01/02 11:11:53;;;;;;;;;;;13.20;58.00;;;;;;5100805;28;19977;-70
2022/01/02 11:14:19;;;;;;;;;;;13.20;57.90;;;;;;5100932;28;20018;-71
2022/01/02 11:16:44;;;;;;;;;;;13.20;58.00;;;;;;5100820;28;20193;-70
2022/01/02 11:19:11;;;;;;;;;;;13.30;57.90;;;;;;5100736;28;19923;-70
2022/01/02 11:21:38;;;;;;;;;;;13.30;57.90;;;;;;5100759;28;20204;-70
2022/01/02 11:24:13;;;;;;;;;;;13.30;58.00;;;;;;5081748;28;19900;-70
2022/01/02 11:26:41;;;;;;;;;;;13.30;58.00;;;;;;5082514;28;19994;-71
2022/01/02 11:29:07;;;;;;;;;;;13.30;57.90;;;;;;5100672;28;20214;-70
2022/01/02 11:31:37;;;;;;;;;;;13.30;57.80;;;;;;5100555;28;19900;-70
2022/01/02 11:34:21;;;;;;;;;;;13.30;57.80;;;;;;5100541;28;19904;-70
2022/01/02 11:36:47;;;;;;;;;;;13.30;57.80;;;;;;5100554;28;19954;-70
2022/01/02 11:39:13;;;;;;;;;;;13.30;57.90;;;;;;5100416;28;19900;-70
2022/01/02 11:41:43;;;;;;;;;;;13.30;57.90;;;;;;5100652;28;19915;-70
2022/01/02 11:44:16;;;;;;;;;;;13.30;57.90;;;;;;5082175;28;20003;-70
2022/01/02 11:46:57;;;;;;;;;;;13.30;57.90;;;;;;5100313;28;19900;-72
2022/01/02 11:49:26;;;;;;;;;;;13.30;58.00;;;;;;5082144;28;19900;-70
2022/01/02 11:51:54;;;;;;;;;;;13.30;58.00;;;;;;5100155;28;19979;-70
2022/01/02 11:54:32;;;;;;;;;;;13.30;58.00;;;;;;5100195;28;19914;-71
2022/01/02 11:57:19;;;;;;;;;;;13.30;58.10;;;;;;5100190;28;19967;-71
2022/01/02 11:59:46;;;;;;;;;;;13.30;58.10;;;;;;5100277;28;19908;-70
2022/01/02 12:02:14;;;;;;;;;;;13.30;58.20;;;;;;5100118;28;19971;-70
2022/01/02 12:05:14;;;;;;;;;;;13.30;58.00;;;;;;5081992;28;20104;-69
2022/01/02 12:07:50;;;;;;;;;;;13.40;58.00;;;;;;5099859;28;20238;-70
2022/01/02 12:12:58;;;;;;;;;;;13.30;58.00;;;;;;5099963;28;19916;-70
2022/01/02 12:15:44;;;;;;;;;;;13.30;58.00;;;;;;5100078;28;19908;-70
2022/01/02 12:18:16;;;;;;;;;;;13.30;58.10;;;;;;5099769;28;20395;-70
2022/01/02 12:20:51;;;;;;;;;;;13.30;58.20;;;;;;5081908;28;19908;-69
2022/01/02 12:23:35;;;;;;;;;;;13.30;58.20;;;;;;5100005;28;19944;-70
2022/01/02 12:26:05;;;;;;;;;;;13.30;58.20;;;;;;5099939;28;19916;-71
2022/01/02 12:28:37;;;;;;;;;;;13.30;58.20;;;;;;5099890;28;19908;-70
2022/01/02 12:31:04;;;;;;;;;;;13.30;58.10;;;;;;5099893;28;20219;-69
2022/01/02 12:33:30;;;;;;;;;;;13.30;58.10;;;;;;5099751;28;19979;-71
2022/01/02 12:35:56;;;;;;;;;;;13.40;58.10;;;;;;5102850;28;19939;-69
2022/01/02 12:38:22;;;;;;;;;;;13.40;58.00;;;;;;5103832;28;19922;-70
2022/01/02 12:40:49;;;;;;;;;;;13.40;58.00;;;;;;5085716;28;19922;-69
2022/01/02 12:43:22;;;;;;;;;;;13.40;58.00;;;;;;5103827;28;19908;-69
2022/01/02 12:45:53;;;;;;;;;;;13.40;58.00;;;;;;5103792;28;19900;-70
2022/01/02 12:48:32;;;;;;;;;;;13.40;58.00;;;;;;5103734;28;19922;-70
2022/01/02 12:51:10;;;;;;;;;;;13.40;58.00;;;;;;5085462;28;19907;-70
2022/01/02 12:53:36;;;;;;;;;;;13.40;58.00;;;;;;5103621;28;19947;-69
2022/01/02 12:56:02;;;;;;;;;;;13.40;58.00;;;;;;5103099;28;19900;-69
2022/01/02 12:58:30;;;;;;;;;;;13.40;58.10;;;;;;5103557;28;19900;-71
2022/01/02 13:01:02;;;;;;;;;;;13.40;58.10;;;;;;5103484;28;19915;-69
2022/01/02 13:03:28;;;;;;;;;;;13.40;58.10;;;;;;5085262;28;19900;-70
2022/01/02 13:05:53;;;;;;;;;;;13.40;58.10;;;;;;5103363;28;20044;-70
2022/01/02 13:08:25;;;;;;;;;;;13.40;58.10;;;;;;5103212;28;19915;-70
2022/01/02 13:10:54;;;;;;;;;;;13.50;58.00;;;;;;5103252;28;19914;-72
2022/01/02 13:13:26;;;;;;;;;;;13.50;58.10;;;;;;5103212;28;19979;-71
2022/01/02 13:15:52;;;;;;;;;;;13.50;58.00;;;;;;5103250;28;19900;-69
2022/01/02 13:18:18;;;;;;;;;;;13.50;58.00;;;;;;5103210;28;19900;-70
2022/01/02 13:20:45;;;;;;;;;;;13.50;58.00;;;;;;5103129;28;19987;-70
2022/01/02 13:23:10;;;;;;;;;;;13.50;58.00;;;;;;5103162;28;19908;-70
2022/01/02 13:25:40;;;;;;;;;;;13.50;58.10;;;;;;5084863;28;20103;-70
2022/01/02 13:28:08;;;;;;;;;;;13.50;58.00;;;;;;5103038;28;19907;-69
2022/01/02 13:30:38;;;;;;;;;;;13.50;58.00;;;;;;5103006;28;19942;-70
2022/01/02 13:33:20;;;;;;;;;;;13.50;58.00;;;;;;5102852;28;20271;-70
2022/01/02 13:35:46;;;;;;;;;;;13.50;58.00;;;;;;5102884;28;19946;-71
2022/01/02 13:38:12;;;;;;;;;;;13.50;58.20;;;;;;5102813;28;19937;-70
2022/01/02 13:40:38;;;;;;;;;;;13.40;58.20;;;;;;5102838;28;19963;-71
2022/01/02 13:43:07;;;;;;;;;;;13.50;58.20;;;;;;5102803;28;19907;-70
2022/01/02 13:45:34;;;;;;;;;;;13.50;58.20;;;;;;5102526;28;19915;-70
2022/01/02 13:48:13;;;;;;;;;;;13.50;58.10;;;;;;5101795;28;19935;-72
2022/01/02 13:50:40;;;;;;;;;;;13.50;58.10;;;;;;5103161;28;19907;-71
2022/01/02 13:53:06;;;;;;;;;;;13.50;58.10;;;;;;5102426;28;20007;-70
2022/01/02 13:55:35;;;;;;;;;;;13.50;58.10;;;;;;5102466;28;20088;-69
2022/01/02 13:58:13;;;;;;;;;;;13.50;58.70;;;;;;5102461;28;20215;-69
2022/01/02 14:00:43;;;;;;;;;;;13.50;58.10;;;;;;5102425;28;19975;-70
2022/01/02 14:03:23;;;;;;;;;;;13.50;58.10;;;;;;5084259;28;19900;-71
2022/01/02 14:05:48;;;;;;;;;;;13.50;58.10;;;;;;5102278;28;19927;-72
2022/01/02 14:08:15;;;;;;;;;;;13.50;58.10;;;;;;5102165;28;19916;-71
2022/01/02 14:10:41;;;;;;;;;;;13.50;58.10;;;;;;5102227;28;19971;-71
2022/01/02 14:13:11;;;;;;;;;;;13.50;58.10;;;;;;5102104;28;19942;-70
2022/01/02 14:15:37;;;;;;;;;;;13.50;58.10;;;;;;5083933;28;19900;-71
2022/01/02 14:18:04;;;;;;;;;;;13.50;58.20;;;;;;5102041;28;20137;-71
2022/01/02 14:20:34;;;;;;;;;;;13.50;58.10;;;;;;5083998;28;20343;-69
2022/01/02 14:23:01;;;;;;;;;;;13.50;58.10;;;;;;5102033;28;19908;-70
2022/01/02 14:25:27;;;;;;;;;;;13.50;58.10;;;;;;5101904;28;19900;-70